Time;durP1;ratioP1;P1;durP2;ratioP2;P2;SDS_P1;SDS_P2;PMS_P1;PMS_P2;Temp;Humidity;BMP_temperature;BMP_pressure;BME280_temperature;BME280_humidity;BME280_pressure;Samples;Min_cycle;Max_cycle;Signal;HPM_P1;HPM_P2
2023/06/26 00:56:54;;;;;;;;;;;;;;;;;;;;;
2023/06/26 06:44:36;;;;;;;;;;;;;;;;;;;;;
2023/06/26 06:47:03;;;;;;;19.50;18.10;;;29.50;99.90;;;;;;4941100;23;20068;-92
2023/06/26 06:49:30;;;;;;;20.65;18.80;;;29.50;99.90;;;;;;4923071;29;20039;-93
2023/06/26 06:51:56;;;;;;;19.88;18.50;;;30.10;99.90;;;;;;4939145;29;20023;-93
2023/06/26 06:54:28;;;;;;;20.48;18.83;;;30.30;99.90;;;;;;4923619;29;20074;-92
2023/06/26 06:56:54;;;;;;;21.27;19.67;;;30.30;99.90;;;;;;4911614;29;20067;-93
2023/06/26 06:59:21;;;;;;;20.40;19.02;;;30.10;99.90;;;;;;4904074;29;20031;-93
2023/06/26 07:01:47;;;;;;;21.60;19.90;;;29.90;99.90;;;;;;4939061;29;20040;-94
2023/06/26 07:04:13;;;;;;;20.10;18.73;;;29.70;99.90;;;;;;4914512;29;20031;-93
2023/06/26 09:30:30;;;;;;;23.17;20.73;;;31.10;99.90;;;;;;4964198;23;20115;-94
2023/06/26 10:29:19;;;;;;;20.60;18.90;;;29.60;99.90;;;;;;4954304;29;20055;-92
2023/06/26 10:32:33;;;;;;;21.05;19.20;;;29.50;99.90;;;;;;4944177;29;20095;-93
2023/06/26 10:35:52;;;;;;;21.35;19.40;;;29.60;99.90;;;;;;4927946;29;20044;-93
2023/06/26 10:39:21;;;;;;;;;;;;;;;;;;;;;
2023/06/26 10:42:14;;;;;;;21.55;19.88;;;30.10;99.90;;;;;;4861051;29;20049;-92
2023/06/26 10:44:53;;;;;;;22.48;20.52;;;29.60;99.90;;;;;;4860404;29;20116;-92
2023/06/26 10:47:40;;;;;;;21.65;20.08;;;29.60;99.90;;;;;;4860241;29;20045;-92
2023/06/26 10:50:35;;;;;;;21.85;19.88;;;29.80;99.90;;;;;;4859716;29;20159;-92
2023/06/26 10:53:25;;;;;;;22.98;20.63;;;29.70;99.90;;;;;;4859826;29;20121;-93
2023/06/26 10:56:07;;;;;;;22.60;20.65;;;29.50;99.90;;;;;;4875652;29;20402;-94
2023/06/26 10:58:49;;;;;;;23.27;20.92;;;29.60;99.90;;;;;;4812449;29;20038;-92
2023/06/26 11:01:28;;;;;;;21.95;20.20;;;29.60;99.90;;;;;;4830105;29;20056;-93
2023/06/26 11:04:08;;;;;;;22.92;20.98;;;29.90;99.90;;;;;;4844869;29;20479;-93
2023/06/26 11:06:48;;;;;;;22.60;20.75;;;29.60;99.90;;;;;;4836085;29;20066;-92
2023/06/26 11:12:54;;;;;;;21.95;20.35;;;29.40;99.90;;;;;;4855762;29;20045;-92
2023/06/26 11:15:56;;;;;;;22.10;20.50;;;29.80;99.90;;;;;;4812803;29;20034;-91
2023/06/26 11:18:24;;;;;;;22.05;20.55;;;29.90;99.90;;;;;;4844080;29;20045;-91
2023/06/26 11:20:50;;;;;;;21.85;20.35;;;30.00;99.90;;;;;;4863212;29;20048;-93
2023/06/26 11:23:24;;;;;;;21.52;19.88;;;29.90;99.90;;;;;;4863031;29;20495;-91
2023/06/26 11:25:50;;;;;;;;;;;29.80;99.90;;;;;;4863389;29;20120;-91
2023/06/26 11:28:20;;;;;;;22.25;20.60;;;30.00;99.90;;;;;;4863008;29;20260;-91
2023/06/26 11:30:47;;;;;;;22.50;20.42;;;30.10;99.90;;;;;;4862997;29;20044;-92
2023/06/26 11:33:13;;;;;;;22.48;20.35;;;30.00;99.90;;;;;;4863875;29;20058;-93
2023/06/26 11:35:40;;;;;;;22.75;20.65;;;29.80;99.90;;;;;;4956428;24;20057;-93
2023/06/26 11:41:13;;;;;;;;;;;;;;;;;;;;;
2023/06/26 11:44:09;;;;;;;22.60;20.48;;;30.00;99.90;;;;;;4955999;29;20035;-92
2023/06/26 11:49:55;;;;;;;23.20;21.50;;;30.10;99.90;;;;;;4902089;29;20053;-91
2023/06/26 11:52:28;;;;;;;23.30;21.48;;;30.30;99.90;;;;;;4886377;29;20111;-92
2023/06/26 11:55:06;;;;;;;23.13;21.27;;;30.00;99.90;;;;;;4863906;29;20044;-92
2023/06/26 11:57:35;;;;;;;23.05;21.05;;;29.60;99.90;;;;;;4851845;29;20093;-93
2023/06/26 12:00:18;;;;;;;25.58;21.50;;;29.60;99.90;;;;;;4868884;29;20547;-91
2023/06/26 12:07:14;;;;;;;22.40;20.67;;;29.90;99.90;;;;;;4827898;29;20122;-94
2023/06/26 12:29:33;;;;;;;25.80;23.40;;;30.00;99.90;;;;;;5507029;23;20089;-93
2023/06/26 12:41:08;;;;;;;23.73;22.02;;;30.20;99.90;;;;;;2818054;23;21525;31
2023/06/26 12:43:39;;;;;;;25.05;23.15;;;30.20;99.90;;;;;;4920020;29;20445;-92
2023/06/26 12:46:06;;;;;;;24.42;22.70;;;30.50;99.90;;;;;;4933014;29;20028;-92
2023/06/26 12:48:55;;;;;;;24.92;22.88;;;30.10;99.90;;;;;;4906709;29;20024;-91
2023/06/26 12:51:26;;;;;;;25.80;23.70;;;29.90;99.90;;;;;;4917053;29;20046;-92
2023/06/26 12:53:53;;;;;;;24.95;22.92;;;29.90;99.90;;;;;;4925391;29;20027;-91
2023/06/26 12:56:20;;;;;;;24.60;22.80;;;30.10;99.90;;;;;;4925458;29;20432;-93
2023/06/26 12:58:46;;;;;;;25.08;23.27;;;30.20;99.90;;;;;;4924517;29;20031;-92
2023/06/26 13:01:19;;;;;;;24.83;23.00;;;30.20;99.90;;;;;;4925009;29;20121;-93
2023/06/26 13:03:47;;;;;;;24.35;22.65;;;30.00;99.90;;;;;;4925436;29;20122;-91
2023/06/26 13:06:14;;;;;;;24.60;22.77;;;29.90;99.90;;;;;;4925198;29;20042;-92
2023/06/26 13:08:41;;;;;;;24.42;22.77;;;29.70;99.90;;;;;;4922665;29;20031;-91
2023/06/26 13:11:16;;;;;;;23.85;22.13;;;29.50;99.90;;;;;;4906161;29;20028;-94
2023/06/26 13:13:52;;;;;;;24.15;22.50;;;29.50;99.90;;;;;;4907077;29;20035;-94
2023/06/26 13:16:28;;;;;;;23.77;22.17;;;29.40;99.90;;;;;;4907239;29;20050;-92
2023/06/26 13:19:04;;;;;;;23.67;22.08;;;29.40;99.90;;;;;;4905907;29;20520;-93
2023/06/26 13:21:38;;;;;;;24.13;22.30;;;29.20;99.90;;;;;;4906854;29;20055;-94
2023/06/26 13:24:18;;;;;;;24.33;22.52;;;29.30;99.90;;;;;;4907945;29;20032;-94
2023/06/26 14:46:12;;;;;;;21.92;20.42;;;28.90;99.90;;;;;;702950;23;20325;-92
2023/06/26 14:48:39;;;;;;;22.27;20.63;;;29.00;99.90;;;;;;4881178;29;20056;-92
2023/06/26 14:51:05;;;;;;;23.38;21.58;;;29.10;99.90;;;;;;4873988;29;20120;-91
2023/06/26 14:53:32;;;;;;;22.55;20.65;;;29.00;99.90;;;;;;4864138;29;20033;-95
2023/06/26 14:55:58;;;;;;;21.92;20.48;;;29.00;99.90;;;;;;4859523;29;20423;-93
2023/06/26 14:58:25;;;;;;;22.95;21.27;;;29.10;99.90;;;;;;4882321;29;20045;-94
2023/06/26 15:00:51;;;;;;;23.65;21.80;;;28.90;99.90;;;;;;4867101;29;20127;-94
2023/06/26 15:03:18;;;;;;;22.65;21.17;;;28.80;99.90;;;;;;4867056;29;20028;-93
2023/06/26 15:05:44;;;;;;;22.67;21.20;;;28.70;99.90;;;;;;4899843;29;20096;-93
2023/06/26 15:08:11;;;;;;;22.42;21.05;;;28.70;99.90;;;;;;4886065;29;20111;-92
2023/06/26 15:10:37;;;;;;;22.02;20.60;;;28.70;99.90;;;;;;4901593;29;20114;-92
2023/06/26 15:13:05;;;;;;;22.83;21.23;;;28.60;99.90;;;;;;4885817;29;20028;-93
2023/06/26 15:15:31;;;;;;;24.02;22.08;;;28.80;99.90;;;;;;4901011;29;20056;-93
2023/06/26 15:17:59;;;;;;;23.67;22.05;;;28.70;99.90;;;;;;4885450;29;20098;-93
2023/06/26 15:20:26;;;;;;;23.52;21.83;;;28.60;99.90;;;;;;4886650;29;20040;-92
2023/06/26 15:22:53;;;;;;;22.25;20.92;;;28.60;99.90;;;;;;4870205;29;20044;-93
2023/06/26 15:25:19;;;;;;;23.13;21.30;;;28.60;99.90;;;;;;4871130;29;20104;-92
2023/06/26 15:27:46;;;;;;;22.02;20.52;;;28.70;99.90;;;;;;4870581;29;20048;-92
2023/06/26 15:30:14;;;;;;;22.73;21.13;;;28.60;99.90;;;;;;4885887;29;20029;-94
2023/06/26 15:32:41;;;;;;;23.08;21.40;;;28.50;99.90;;;;;;4870494;29;20052;-93
2023/06/26 15:35:09;;;;;;;23.10;21.42;;;28.50;99.90;;;;;;4885109;29;20039;-95
2023/06/26 15:37:39;;;;;;;23.40;21.25;;;28.50;99.90;;;;;;4875433;29;20036;-93
2023/06/26 15:40:06;;;;;;;22.80;21.10;;;28.60;99.90;;;;;;4902973;29;20482;-94
2023/06/26 15:42:32;;;;;;;22.33;20.73;;;28.60;99.90;;;;;;4869904;29;20048;-91
2023/06/26 15:44:59;;;;;;;22.45;21.13;;;28.50;99.90;;;;;;4870147;29;20071;-91
2023/06/26 15:47:25;;;;;;;21.67;20.33;;;28.60;99.90;;;;;;4860773;29;20056;-93
2023/06/26 15:49:52;;;;;;;22.13;20.83;;;28.70;99.90;;;;;;4859678;29;20025;-94
2023/06/26 15:52:18;;;;;;;22.98;21.40;;;28.60;99.90;;;;;;4851670;29;20025;-92
2023/06/26 15:54:45;;;;;;;24.27;21.25;;;28.50;99.90;;;;;;4851669;29;20033;-92
2023/06/26 15:57:12;;;;;;;23.25;21.23;;;28.40;99.90;;;;;;4851377;29;20062;-93
2023/06/26 15:59:38;;;;;;;21.73;20.50;;;28.40;99.90;;;;;;4867628;29;20033;-92
2023/06/26 16:02:05;;;;;;;24.00;22.27;;;28.40;99.90;;;;;;4869558;29;20064;-93
2023/06/26 16:04:32;;;;;;;22.02;20.70;;;28.30;99.90;;;;;;4885155;29;20036;-92
2023/06/26 16:06:59;;;;;;;22.10;20.83;;;28.30;99.90;;;;;;4885018;29;20056;-92
2023/06/26 16:09:26;;;;;;;21.75;20.40;;;28.40;99.90;;;;;;4869946;29;20092;-92
2023/06/26 16:11:52;;;;;;;22.02;20.52;;;28.50;99.90;;;;;;4881701;29;20032;-94
2023/06/26 16:14:19;;;;;;;21.92;20.48;;;28.40;99.90;;;;;;4851417;29;20115;-93
2023/06/26 16:16:45;;;;;;;22.83;21.30;;;28.50;99.90;;;;;;4852321;29;20486;-95
2023/06/26 16:19:15;;;;;;;22.15;20.55;;;28.60;99.90;;;;;;4851284;29;20029;-92
2023/06/26 16:21:42;;;;;;;21.25;19.77;;;28.60;99.90;;;;;;4866543;29;20068;-93
2023/06/26 16:24:08;;;;;;;22.45;20.42;;;28.50;99.90;;;;;;4851138;29;20077;-92
2023/06/26 16:26:35;;;;;;;21.60;20.25;;;28.50;99.90;;;;;;4851128;29;20112;-91
2023/06/26 16:29:02;;;;;;;22.25;20.48;;;28.40;99.90;;;;;;4851059;29;20113;-91
2023/06/26 16:31:28;;;;;;;21.33;19.83;;;28.40;99.90;;;;;;4850934;29;20083;-93
2023/06/26 16:33:55;;;;;;;21.58;20.17;;;28.40;99.90;;;;;;4849502;29;20032;-92
2023/06/26 16:36:21;;;;;;;21.80;20.30;;;28.30;99.90;;;;;;4851876;29;20037;-93
2023/06/26 16:38:48;;;;;;;22.02;20.33;;;28.30;99.90;;;;;;4884686;29;20033;-91
2023/06/26 16:41:17;;;;;;;21.67;20.20;;;28.20;99.90;;;;;;4870074;29;20044;-95
2023/06/26 16:43:44;;;;;;;21.80;20.35;;;28.10;99.90;;;;;;4887821;29;20093;-92
2023/06/26 16:46:34;;;;;;;21.80;20.08;;;28.00;99.90;;;;;;4901913;24;20087;-94
2023/06/26 16:49:00;;;;;;;21.75;20.42;;;28.10;99.90;;;;;;4869301;29;20037;-94
2023/06/26 16:51:27;;;;;;;21.10;19.90;;;28.10;99.90;;;;;;4885335;29;20101;-93
2023/06/26 16:53:54;;;;;;;21.42;19.70;;;28.10;99.90;;;;;;4888781;29;20028;-94
2023/06/26 16:56:20;;;;;;;21.67;19.88;;;28.10;99.90;;;;;;4930535;29;20028;-93
2023/06/26 16:58:47;;;;;;;21.45;19.73;;;28.10;99.90;;;;;;4941225;29;20504;-92
2023/06/26 17:01:14;;;;;;;20.85;19.55;;;28.10;99.90;;;;;;4927683;29;20079;-93
2023/06/26 17:03:40;;;;;;;21.52;19.90;;;28.00;99.90;;;;;;4903150;29;20496;-92
2023/06/26 17:06:08;;;;;;;22.17;20.25;;;27.90;99.90;;;;;;4919877;29;20044;-94
2023/06/26 17:08:36;;;;;;;21.40;19.80;;;27.90;99.90;;;;;;4922423;29;20473;-94
2023/06/26 17:11:05;;;;;;;21.45;19.88;;;27.90;99.90;;;;;;4921989;29;20027;-95
2023/06/26 17:13:31;;;;;;;21.85;20.25;;;27.80;99.90;;;;;;4922303;29;20032;-93
2023/06/26 17:15:58;;;;;;;22.42;20.30;;;27.80;99.90;;;;;;4922962;29;20059;-94
2023/06/26 17:18:25;;;;;;;21.75;20.23;;;27.80;99.90;;;;;;4919107;29;20028;-93
2023/06/26 17:20:51;;;;;;;21.15;19.85;;;27.70;99.90;;;;;;4921504;29;20525;-92
2023/06/26 17:23:18;;;;;;;21.50;20.15;;;27.70;99.90;;;;;;4922174;29;20493;-92
2023/06/26 17:25:44;;;;;;;22.48;20.88;;;27.70;99.90;;;;;;4919514;29;20056;-94
2023/06/26 17:28:11;;;;;;;21.98;20.08;;;27.60;99.90;;;;;;4903525;29;20043;-95
2023/06/26 17:30:39;;;;;;;21.45;20.00;;;27.60;99.90;;;;;;4886660;29;20036;-92
2023/06/26 17:33:06;;;;;;;21.27;19.88;;;27.50;99.90;;;;;;4902638;29;20031;-93
2023/06/26 17:35:34;;;;;;;21.42;19.75;;;27.50;99.90;;;;;;4906486;29;20027;-92
2023/06/26 17:38:04;;;;;;;21.10;19.70;;;27.30;99.90;;;;;;4921244;29;20043;-93
2023/06/26 17:40:31;;;;;;;21.58;20.00;;;27.20;99.90;;;;;;4922475;29;20032;-93
2023/06/26 17:43:29;;;;;;;20.67;19.17;;;27.00;99.90;;;;;;4925247;29;20051;-92
2023/06/26 17:45:56;;;;;;;20.20;18.77;;;27.00;99.90;;;;;;4920757;29;20055;-94
2023/06/26 17:48:22;;;;;;;21.00;19.25;;;27.00;99.90;;;;;;4918173;29;20102;-93
2023/06/26 17:50:49;;;;;;;20.40;18.80;;;26.90;99.90;;;;;;4902202;29;20040;-90
2023/06/26 17:53:17;;;;;;;21.02;19.35;;;26.80;99.90;;;;;;4902376;29;20024;-93
2023/06/26 17:55:44;;;;;;;21.05;19.33;;;26.80;99.90;;;;;;4902203;29;20051;-92
2023/06/26 17:58:10;;;;;;;20.13;18.58;;;26.70;99.90;;;;;;4902109;29;20032;-93
2023/06/26 18:00:39;;;;;;;20.30;18.73;;;26.70;99.90;;;;;;4902123;29;20192;-93
2023/06/26 18:03:06;;;;;;;20.25;18.75;;;26.60;99.90;;;;;;4904256;29;20039;-95
2023/06/26 18:08:21;;;;;;;20.10;18.50;;;26.50;99.90;;;;;;4937058;29;20119;-94
2023/06/26 18:10:48;;;;;;;20.35;18.80;;;26.50;99.90;;;;;;4921064;29;20024;-93
2023/06/26 18:13:14;;;;;;;20.10;18.42;;;26.40;99.90;;;;;;4921263;29;20032;-93
2023/06/26 18:15:41;;;;;;;19.85;18.40;;;26.30;99.90;;;;;;4917939;29;20115;-94
2023/06/26 18:18:08;;;;;;;19.23;17.90;;;26.30;99.90;;;;;;4901738;29;20039;-92
2023/06/26 18:20:34;;;;;;;20.20;18.27;;;26.20;99.90;;;;;;4902190;29;20024;-93
2023/06/26 18:23:02;;;;;;;19.55;18.15;;;26.20;99.90;;;;;;4902239;29;20028;-94
2023/06/26 18:25:30;;;;;;;19.95;18.27;;;26.20;99.90;;;;;;4902120;29;20089;-93
2023/06/26 18:27:57;;;;;;;20.23;18.85;;;26.20;99.90;;;;;;4903085;29;20068;-95
2023/06/26 18:30:24;;;;;;;20.80;19.13;;;26.10;99.90;;;;;;4893217;29;20028;-94
2023/06/26 18:32:50;;;;;;;19.40;17.90;;;26.10;99.90;;;;;;4920374;29;20103;-93
2023/06/26 18:35:17;;;;;;;18.90;17.60;;;26.00;99.90;;;;;;4920445;29;20396;-93
2023/06/26 18:37:46;;;;;;;18.48;17.15;;;26.00;99.90;;;;;;4920989;29;20111;-94
2023/06/26 18:40:14;;;;;;;19.23;17.80;;;25.90;99.90;;;;;;4917406;29;20028;-93
2023/06/26 18:42:42;;;;;;;19.33;17.70;;;25.90;99.90;;;;;;4917266;29;20561;-93
2023/06/26 18:45:15;;;;;;;19.30;17.83;;;25.80;99.90;;;;;;4919937;29;20040;-96
2023/06/26 18:47:45;;;;;;;19.35;17.95;;;25.70;99.90;;;;;;4891460;29;20051;-92
2023/06/26 18:53:43;;;;;;;19.15;17.52;;;25.60;99.90;;;;;;4865928;29;20053;-93
2023/06/26 18:56:10;;;;;;;18.75;17.30;;;25.40;99.90;;;;;;4849986;29;20132;-93
2023/06/26 18:58:58;;;;;;;;;;;;;;;;;;;;;
2023/06/26 19:01:57;;;;;;;20.10;18.25;;;25.10;99.90;;;;;;5007825;23;20063;-95
2023/06/26 19:04:54;;;;;;;20.80;18.90;;;25.00;99.90;;;;;;4849464;29;20060;-93
2023/06/26 19:07:52;;;;;;;21.38;19.80;;;25.00;99.90;;;;;;4844253;29;20087;-94
2023/06/26 19:10:52;;;;;;;;;;;;;;;;;;;;;
2023/06/26 19:17:20;;;;;;;27.27;20.92;;;24.70;99.90;;;;;;4924867;23;20047;-93
2023/06/26 19:20:48;;;;;;;;;;;;;;;;;;;;;
2023/06/26 19:26:44;;;;;;;21.48;19.70;;;24.50;99.90;;;;;;4920027;29;20120;-93
2023/06/26 19:29:30;;;;;;;23.13;21.13;;;24.50;99.90;;;;;;5278088;23;20052;-95
2023/06/26 19:32:00;;;;;;;23.75;21.27;;;24.50;99.90;;;;;;4873348;29;20025;-93
2023/06/26 19:35:10;;;;;;;23.02;20.83;;;24.50;99.90;;;;;;4900695;29;20039;-94
2023/06/26 19:38:10;;;;;;;;;;;;;;;;;;;;;
2023/06/26 19:40:50;;;;;;;27.63;21.17;;;24.40;99.90;;;;;;4809878;29;20050;-93
2023/06/26 19:43:17;;;;;;;22.73;20.42;;;24.30;99.90;;;;;;4793129;29;20035;-93
2023/06/26 19:45:45;;;;;;;24.48;21.98;;;24.30;99.90;;;;;;4825110;29;20129;-93
2023/06/26 20:32:25;;;;;;;17.33;15.50;;;23.80;99.90;;;;;;5039654;23;20150;-92
2023/06/26 20:35:33;;;;;;;17.70;14.70;;;23.70;99.90;;;;;;4926626;29;20204;-94
2023/06/26 20:38:00;;;;;;;16.98;15.27;;;23.70;99.90;;;;;;4912789;29;20047;-94
2023/06/26 20:54:44;;;;;;;19.25;12.55;;;23.60;99.90;;;;;;4938077;29;20497;-93
2023/06/26 22:39:32;;;;;;;13.73;12.43;;;22.90;99.90;;;;;;4994892;23;20089;-93
2023/06/26 22:42:03;;;;;;;19.50;13.63;;;22.90;99.90;;;;;;4891359;24;20502;-93
2023/06/26 22:44:30;;;;;;;15.23;12.70;;;22.80;99.90;;;;;;4867591;29;20417;-93
2023/06/26 22:46:57;;;;;;;13.02;11.80;;;22.80;99.90;;;;;;4898094;29;20056;-92
2023/06/26 22:49:24;;;;;;;13.75;12.38;;;22.80;99.90;;;;;;4867465;29;20029;-94
2023/06/26 22:52:24;;;;;;;13.68;12.35;;;22.80;99.90;;;;;;4940606;23;20096;-93
2023/06/26 22:55:35;;;;;;;16.10;12.15;;;22.70;99.90;;;;;;4901431;29;20398;-92
2023/06/26 22:58:16;;;;;;;15.48;12.93;;;22.60;99.90;;;;;;4897642;29;20044;-93
2023/06/26 23:04:22;;;;;;;;;;;;;;;;;;;;;
2023/06/26 23:07:36;;;;;;;;;;;;;;;;;;;;;
2023/06/26 23:13:18;;;;;;;13.80;12.50;;;22.70;99.90;;;;;;4923071;23;20052;-92
2023/06/26 23:16:14;;;;;;;13.82;12.43;;;22.60;99.90;;;;;;4901840;29;20030;-92
2023/06/26 23:25:33;;;;;;;12.93;11.63;;;22.50;99.90;;;;;;4823856;29;20041;-95
2023/06/26 23:28:32;;;;;;;11.93;10.75;;;22.40;99.90;;;;;;4793328;29;20186;-94
2023/06/26 23:31:27;;;;;;;14.82;11.52;;;22.30;99.90;;;;;;4805828;29;20043;-93
2023/06/26 23:34:11;;;;;;;12.18;11.05;;;22.20;99.90;;;;;;4805747;29;20043;-92
2023/06/26 23:37:01;;;;;;;14.43;10.98;;;22.20;99.90;;;;;;4805775;29;20091;-93
2023/06/26 23:39:54;;;;;;;10.80;9.85;;;22.20;99.90;;;;;;4805217;29;20042;-92
2023/06/26 23:42:42;;;;;;;;;;;;;;;;;;;;;
2023/06/26 23:45:52;;;;;;;11.32;10.18;;;22.10;99.90;;;;;;4923802;29;20036;-92
2023/06/26 23:48:57;;;;;;;11.38;10.27;;;22.10;99.90;;;;;;4940336;29;20059;-93
2023/06/26 23:54:30;;;;;;;11.77;10.10;;;22.10;99.90;;;;;;4845529;29;20042;-93
2023/06/26 23:57:33;;;;;;;11.77;10.57;;;22.00;99.90;;;;;;4844650;29;20106;-92
